Time;durP1;ratioP1;P1;durP2;ratioP2;P2;SDS_P1;SDS_P2;PMS_P1;PMS_P2;Temp;Humidity;BMP_temperature;BMP_pressure;BME280_temperature;BME280_humidity;BME280_pressure;Samples;Min_cycle;Max_cycle;Signal;HPM_P1;HPM_P2
2022/11/08 00:01:32;;;;;;;12.37;6.87;;;7.30;79.00;;;;;;4997436;28;20044;-62
2022/11/08 00:04:00;;;;;;;10.73;6.55;;;7.30;79.10;;;;;;4959188;28;1080057;-62
2022/11/08 00:14:39;;;;;;;9.40;5.35;;;7.10;79.60;;;;;;4999872;28;20162;-61
2022/11/08 00:17:05;;;;;;;7.45;5.03;;;7.00;79.70;;;;;;5004699;28;20057;-61
2022/11/08 00:19:31;;;;;;;10.20;5.55;;;7.00;79.80;;;;;;5003629;28;20034;-61
2022/11/08 00:21:56;;;;;;;8.45;5.10;;;7.00;79.90;;;;;;5000912;28;20034;-63
2022/11/08 00:24:22;;;;;;;9.73;6.13;;;7.00;80.00;;;;;;5002026;28;20531;-60
2022/11/08 00:26:47;;;;;;;12.43;6.63;;;6.90;79.90;;;;;;4997374;28;20490;-61
2022/11/08 00:29:13;;;;;;;11.55;6.60;;;6.90;80.00;;;;;;5000198;28;20037;-62
2022/11/08 00:31:39;;;;;;;11.27;6.97;;;6.90;80.00;;;;;;4997448;28;20050;-61
2022/11/08 00:34:04;;;;;;;12.88;7.03;;;6.90;80.00;;;;;;5001180;28;20561;-62
2022/11/08 00:36:30;;;;;;;11.35;7.00;;;6.90;79.90;;;;;;4996305;28;20373;-62
2022/11/08 00:38:55;;;;;;;9.13;6.15;;;6.80;79.80;;;;;;5000223;28;20405;-62
2022/11/08 00:41:21;;;;;;;10.13;5.93;;;6.90;79.80;;;;;;4996173;28;20038;-63
2022/11/08 00:43:46;;;;;;;8.68;5.50;;;6.80;79.80;;;;;;4996899;28;20036;-62
2022/11/08 00:46:12;;;;;;;8.60;5.78;;;6.80;79.80;;;;;;4997279;28;20062;-63
2022/11/08 00:48:37;;;;;;;9.10;6.30;;;6.80;79.80;;;;;;4996995;28;20034;-63
2022/11/08 00:51:05;;;;;;;8.25;5.63;;;6.80;79.80;;;;;;4997534;28;20417;-62
2022/11/08 00:53:30;;;;;;;7.75;5.50;;;6.80;79.80;;;;;;4996664;28;20641;-60
2022/11/08 00:56:04;;;;;;;10.20;5.43;;;6.70;79.80;;;;;;5000395;28;20058;-62
2022/11/08 00:58:30;;;;;;;11.37;5.73;;;6.70;80.10;;;;;;4999956;28;20041;-63
2022/11/08 01:00:56;;;;;;;8.20;5.72;;;6.60;80.00;;;;;;5002493;28;20042;-61
2022/11/08 01:03:22;;;;;;;7.72;5.35;;;6.60;79.90;;;;;;4999170;28;20054;-63
2022/11/08 01:05:50;;;;;;;10.63;5.70;;;6.60;79.90;;;;;;5001392;28;20169;-63
2022/11/08 01:08:16;;;;;;;8.23;4.93;;;6.60;79.80;;;;;;5002871;28;20030;-63
2022/11/08 01:10:43;;;;;;;9.82;5.40;;;6.50;79.70;;;;;;4998974;28;20045;-61
2022/11/08 01:13:10;;;;;;;7.65;4.82;;;6.50;79.90;;;;;;5002481;28;20150;-62
2022/11/08 01:15:39;;;;;;;9.50;5.18;;;6.50;79.80;;;;;;5003292;28;20584;-63
2022/11/08 01:18:05;;;;;;;7.97;5.00;;;6.50;79.70;;;;;;5004813;28;20046;-62
2022/11/08 01:20:32;;;;;;;6.22;4.38;;;6.50;79.80;;;;;;4999464;28;20043;-62
2022/11/08 01:22:57;;;;;;;8.82;4.63;;;6.40;80.00;;;;;;4998753;28;20045;-63
2022/11/08 01:25:23;;;;;;;7.07;4.55;;;6.40;80.00;;;;;;5001904;28;20038;-62
2022/11/08 01:27:48;;;;;;;8.57;4.35;;;6.40;79.70;;;;;;4998975;28;20345;-62
2022/11/08 01:30:14;;;;;;;7.00;4.40;;;6.30;79.70;;;;;;4997420;28;20091;-60
2022/11/08 01:32:39;;;;;;;7.10;4.32;;;6.30;79.70;;;;;;4997920;28;20880;-62
2022/11/08 01:35:06;;;;;;;6.93;4.28;;;6.20;79.60;;;;;;4996541;28;20049;-63
2022/11/08 01:37:31;;;;;;;7.45;4.35;;;6.20;79.70;;;;;;4998163;28;20069;-62
2022/11/08 01:39:57;;;;;;;9.73;5.05;;;6.10;79.90;;;;;;4996617;28;20037;-61
2022/11/08 01:42:30;;;;;;;9.65;4.90;;;6.10;80.10;;;;;;4998745;28;20069;-61
2022/11/08 01:45:04;;;;;;;23.88;5.55;;;6.10;80.70;;;;;;4996612;28;20257;-63
2022/11/08 01:47:30;;;;;;;21.20;4.78;;;6.00;80.80;;;;;;4996004;28;20092;-63
2022/11/08 01:50:04;;;;;;;8.68;4.55;;;6.00;81.10;;;;;;4996206;28;20049;-61
2022/11/08 01:52:35;;;;;;;14.38;4.90;;;6.00;81.40;;;;;;4998061;28;20548;-61
2022/11/08 01:55:12;;;;;;;15.82;4.50;;;6.00;81.60;;;;;;4999388;28;20136;-63
2022/11/08 01:57:45;;;;;;;14.23;4.55;;;6.00;81.60;;;;;;5001019;28;20042;-63
2022/11/08 02:00:12;;;;;;;22.40;4.65;;;6.10;81.80;;;;;;5002377;28;20168;-60
2022/11/08 02:02:40;;;;;;;18.05;4.53;;;6.10;81.60;;;;;;5004125;28;20049;-61
2022/11/08 02:05:23;;;;;;;17.27;4.00;;;6.10;81.80;;;;;;5001572;28;20126;-62
2022/11/08 02:08:08;;;;;;;27.13;4.28;;;6.10;82.00;;;;;;5004971;28;20030;-61
2022/11/08 02:10:39;;;;;;;19.00;3.60;;;6.00;82.00;;;;;;4998004;28;20040;-62
2022/11/08 02:13:09;;;;;;;18.63;3.90;;;6.10;82.20;;;;;;5002497;28;20065;-61
2022/11/08 02:15:34;;;;;;;8.93;3.90;;;6.10;82.20;;;;;;5000408;28;20066;-63
2022/11/08 02:18:01;;;;;;;20.08;4.10;;;6.10;82.20;;;;;;5007313;28;20068;-61
2022/11/08 02:20:26;;;;;;;17.67;4.43;;;6.10;82.40;;;;;;5004572;28;20100;-60
2022/11/08 02:23:08;;;;;;;19.05;4.82;;;6.10;82.70;;;;;;5002083;28;20041;-61
2022/11/08 02:25:33;;;;;;;12.73;3.60;;;6.20;83.00;;;;;;5001722;28;20509;-62
2022/11/08 02:27:59;;;;;;;21.63;4.32;;;6.20;83.00;;;;;;5003958;28;20046;-62
2022/11/08 02:30:34;;;;;;;21.50;4.57;;;6.20;82.90;;;;;;5002292;28;20030;-61
2022/11/08 02:32:59;;;;;;;;;;;6.20;83.20;;;;;;5003529;28;20041;-62
2022/11/08 02:35:26;;;;;;;19.50;4.80;;;6.30;84.00;;;;;;5001066;28;19920;-62
2022/11/08 02:37:52;;;;;;;17.48;4.63;;;6.30;82.80;;;;;;5005642;28;20541;-62
2022/11/08 02:40:18;;;;;;;12.55;4.32;;;6.30;82.90;;;;;;5005657;28;20552;-60
2022/11/08 02:42:43;;;;;;;21.45;4.95;;;6.30;83.00;;;;;;5005069;28;20073;-61
2022/11/08 02:45:09;;;;;;;6.30;4.53;;;6.30;83.10;;;;;;5005177;28;20034;-63
2022/11/08 02:47:35;;;;;;;5.57;3.55;;;6.30;83.00;;;;;;5007216;28;20113;-62
2022/11/08 02:50:01;;;;;;;4.25;3.30;;;6.30;83.20;;;;;;5003278;28;20037;-63
2022/11/08 02:52:26;;;;;;;7.50;3.90;;;6.30;82.90;;;;;;5004824;28;20093;-62
2022/11/08 02:54:52;;;;;;;4.85;3.88;;;6.30;82.80;;;;;;5000003;28;20430;-62
2022/11/08 02:57:17;;;;;;;5.15;3.80;;;6.30;82.50;;;;;;5000623;28;20058;-61
2022/11/08 02:59:43;;;;;;;5.07;3.60;;;6.30;82.60;;;;;;5003596;28;20042;-62
2022/11/08 03:02:09;;;;;;;5.05;3.60;;;6.30;82.60;;;;;;4997708;28;20705;-62
2022/11/08 03:04:35;;;;;;;5.68;3.35;;;6.10;82.50;;;;;;5001480;28;20041;-61
2022/11/08 03:07:00;;;;;;;7.07;3.97;;;6.30;82.60;;;;;;4999304;28;20030;-61
2022/11/08 03:09:26;;;;;;;6.07;3.97;;;6.30;82.60;;;;;;4999047;28;20494;-62
2022/11/08 03:11:52;;;;;;;4.57;3.80;;;6.30;82.30;;;;;;4999033;28;20032;-62
2022/11/08 03:14:18;;;;;;;4.93;3.65;;;6.30;82.30;;;;;;5007471;28;20506;-61
2022/11/08 03:16:43;;;;;;;5.45;3.60;;;6.30;82.10;;;;;;4997892;28;20041;-63
2022/11/08 03:19:10;;;;;;;6.18;4.00;;;6.30;82.00;;;;;;4999026;28;20418;-62
2022/11/08 03:21:36;;;;;;;5.32;3.92;;;6.30;81.60;;;;;;4998001;28;20036;-62
2022/11/08 03:24:03;;;;;;;4.63;3.42;;;6.30;81.60;;;;;;5000659;28;20034;-61
2022/11/08 03:26:30;;;;;;;5.35;3.92;;;6.30;81.50;;;;;;4998981;28;20033;-61
2022/11/08 03:28:56;;;;;;;5.72;3.50;;;6.30;81.40;;;;;;5003997;28;20053;-60
2022/11/08 03:31:21;;;;;;;4.00;3.58;;;6.20;81.30;;;;;;5001549;28;20179;-59
2022/11/08 03:33:47;;;;;;;5.10;3.47;;;6.20;81.40;;;;;;5000303;28;20041;-62
2022/11/08 03:36:13;;;;;;;4.43;3.67;;;6.20;81.70;;;;;;5001672;28;20030;-61
2022/11/08 03:38:38;;;;;;;6.38;4.05;;;6.10;81.90;;;;;;5000549;28;20033;-62
2022/11/08 03:41:04;;;;;;;5.50;4.15;;;6.10;81.80;;;;;;5003348;28;20038;-60
2022/11/08 03:43:29;;;;;;;5.82;4.13;;;6.10;81.80;;;;;;4999222;28;20046;-61
2022/11/08 03:45:55;;;;;;;7.13;4.10;;;6.10;82.80;;;;;;5003155;28;20041;-61
2022/11/08 03:48:22;;;;;;;9.60;5.10;;;6.10;81.90;;;;;;5001931;28;20048;-61
2022/11/08 03:50:49;;;;;;;7.82;4.80;;;6.10;81.90;;;;;;4999212;28;20042;-61
2022/11/08 03:53:14;;;;;;;8.75;4.68;;;6.10;82.10;;;;;;4999896;28;20049;-62
2022/11/08 03:55:40;;;;;;;10.77;4.70;;;6.00;82.10;;;;;;5002032;28;20030;-63
2022/11/08 03:58:06;;;;;;;14.75;5.15;;;6.00;82.10;;;;;;5000416;28;20034;-62
2022/11/08 04:00:31;;;;;;;45.20;7.05;;;6.10;82.40;;;;;;5003125;28;20042;-63
2022/11/08 04:03:02;;;;;;;57.17;6.40;;;6.00;82.30;;;;;;4997014;28;20041;-60
2022/11/08 04:05:28;;;;;;;68.32;6.28;;;5.90;82.60;;;;;;4999178;28;20517;-61
2022/11/08 04:07:53;;;;;;;84.63;7.15;;;6.00;82.60;;;;;;4997671;28;20125;-63
2022/11/08 04:10:19;;;;;;;13.75;5.78;;;6.00;83.00;;;;;;4998039;28;20586;-62
2022/11/08 04:15:29;;;;;;;13.07;4.57;;;6.00;83.30;;;;;;4997857;28;20052;-62
2022/11/08 04:23:27;;;;;;;15.88;5.25;;;6.00;83.30;;;;;;4999850;28;20049;-62
2022/11/08 04:25:58;;;;;;;12.25;5.88;;;6.00;83.20;;;;;;4997554;28;20038;-63
2022/11/08 04:28:25;;;;;;;26.48;5.70;;;6.00;83.30;;;;;;5002115;28;20577;-60
2022/11/08 04:30:55;;;;;;;17.65;5.10;;;6.10;83.30;;;;;;4982865;28;21557;-61
2022/11/08 04:33:21;;;;;;;11.95;5.47;;;6.10;83.40;;;;;;5000039;28;20136;-61
2022/11/08 04:35:48;;;;;;;17.70;5.85;;;6.10;83.30;;;;;;4995931;28;20491;-62
2022/11/08 04:38:13;;;;;;;12.00;5.13;;;6.10;83.30;;;;;;4998883;28;20049;-63
2022/11/08 04:40:39;;;;;;;6.75;4.65;;;6.10;83.30;;;;;;4996633;28;20045;-63
2022/11/08 04:43:05;;;;;;;10.35;4.80;;;6.10;83.30;;;;;;5000506;28;20100;-61
2022/11/08 04:45:30;;;;;;;13.05;5.28;;;6.10;83.20;;;;;;4999066;28;20532;-62
2022/11/08 04:47:56;;;;;;;8.48;4.88;;;6.10;83.20;;;;;;5000367;28;20469;-64
2022/11/08 04:50:21;;;;;;;16.38;4.82;;;6.20;83.20;;;;;;4998461;28;20414;-63
2022/11/08 04:52:51;;;;;;;13.57;4.95;;;6.10;83.00;;;;;;5001853;28;20038;-62
2022/11/08 04:55:17;;;;;;;9.00;5.55;;;6.20;83.00;;;;;;4999689;28;20406;-62
2022/11/08 04:57:43;;;;;;;10.15;4.88;;;6.10;82.90;;;;;;4997693;28;20516;-62
2022/11/08 05:00:09;;;;;;;9.63;5.78;;;6.10;83.00;;;;;;4998401;28;20125;-62
2022/11/08 05:02:35;;;;;;;27.73;11.57;;;6.20;83.10;;;;;;4999512;28;20037;-63
2022/11/08 05:05:01;;;;;;;257.67;84.55;;;6.20;83.20;;;;;;4997888;28;20030;-62
2022/11/08 05:07:28;;;;;;;639.28;175.98;;;6.20;83.20;;;;;;4999323;28;20066;-62
2022/11/08 05:09:54;;;;;;;169.65;52.58;;;6.20;83.20;;;;;;4997370;28;20496;-62
2022/11/08 05:12:20;;;;;;;166.73;47.30;;;6.20;83.20;;;;;;4991645;28;20034;-61
2022/11/08 05:14:45;;;;;;;88.05;26.58;;;6.20;83.20;;;;;;5000131;28;20468;-62
2022/11/08 05:17:11;;;;;;;29.23;10.80;;;6.20;83.30;;;;;;4995903;28;20068;-63
2022/11/08 05:25:22;;;;;;;14.50;6.50;;;6.20;83.00;;;;;;4990030;28;20040;-60
2022/11/08 05:27:47;;;;;;;33.25;6.70;;;6.20;83.00;;;;;;5006596;28;20037;-62
2022/11/08 05:30:13;;;;;;;26.08;6.80;;;6.30;83.00;;;;;;5007408;28;20030;-62
2022/11/08 05:32:38;;;;;;;32.58;9.20;;;6.30;82.90;;;;;;5006853;28;20453;-62
2022/11/08 05:35:05;;;;;;;31.05;9.23;;;6.30;82.80;;;;;;5007186;28;20042;-63
2022/11/08 05:37:30;;;;;;;28.33;9.48;;;6.20;82.80;;;;;;5008058;28;20042;-62
2022/11/08 05:39:56;;;;;;;22.27;9.48;;;6.20;82.80;;;;;;5007267;28;20125;-61
2022/11/08 05:42:21;;;;;;;32.45;10.70;;;6.20;82.80;;;;;;5008410;28;20393;-62
2022/11/08 05:44:47;;;;;;;23.80;12.07;;;6.20;83.00;;;;;;5006836;28;20049;-63
2022/11/08 05:47:12;;;;;;;29.00;12.07;;;6.20;83.20;;;;;;5008590;28;20030;-62
2022/11/08 05:49:38;;;;;;;29.92;11.13;;;6.20;83.30;;;;;;5006959;28;20030;-61
2022/11/08 05:52:03;;;;;;;22.67;11.05;;;6.20;83.40;;;;;;5006471;28;20450;-63
2022/11/08 05:54:29;;;;;;;27.25;11.60;;;6.20;83.50;;;;;;5007184;28;20042;-60
2022/11/08 05:56:55;;;;;;;26.10;11.23;;;6.20;83.50;;;;;;5008380;28;20449;-60
2022/11/08 05:59:20;;;;;;;30.38;10.43;;;6.20;83.60;;;;;;5005108;28;20034;-62
2022/11/08 06:01:46;;;;;;;31.95;11.45;;;6.20;83.70;;;;;;5008312;28;20121;-63
2022/11/08 06:04:11;;;;;;;31.23;12.25;;;6.20;83.60;;;;;;5008947;28;20069;-62
2022/11/08 06:06:37;;;;;;;62.72;20.73;;;6.20;83.50;;;;;;5005647;28;20057;-62
2022/11/08 06:09:03;;;;;;;30.70;11.10;;;6.20;83.50;;;;;;5005220;28;20060;-62
2022/11/08 06:11:28;;;;;;;33.92;9.55;;;6.20;83.50;;;;;;5002636;28;20348;-61
2022/11/08 06:13:54;;;;;;;23.30;10.63;;;6.20;83.50;;;;;;5007010;28;20049;-60
2022/11/08 06:16:22;;;;;;;32.80;10.25;;;6.20;83.40;;;;;;5007379;28;20312;-60
2022/11/08 06:18:47;;;;;;;34.15;14.55;;;6.20;83.50;;;;;;5005041;28;20426;-62
2022/11/08 06:21:15;;;;;;;29.85;9.75;;;6.20;83.60;;;;;;5004830;28;20041;-61
2022/11/08 06:23:41;;;;;;;16.63;7.22;;;6.20;83.80;;;;;;5007341;28;20112;-61
2022/11/08 06:26:08;;;;;;;16.48;7.60;;;6.20;83.60;;;;;;5005668;28;20038;-61
2022/11/08 06:28:34;;;;;;;16.42;7.68;;;6.20;83.50;;;;;;5004453;28;20489;-59
2022/11/08 06:31:01;;;;;;;21.17;7.18;;;6.10;83.30;;;;;;5006595;28;20462;-61
2022/11/08 06:33:27;;;;;;;32.17;8.98;;;6.10;83.50;;;;;;5006975;28;20042;-63
2022/11/08 06:35:53;;;;;;;27.92;8.18;;;6.10;83.70;;;;;;5005768;28;20576;-62
2022/11/08 06:38:19;;;;;;;18.45;6.68;;;6.10;83.90;;;;;;5005222;28;20041;-59
2022/11/08 06:40:44;;;;;;;16.67;6.90;;;6.10;83.90;;;;;;5003511;28;20069;-60
2022/11/08 06:43:10;;;;;;;31.45;6.78;;;6.10;83.90;;;;;;5006174;28;20072;-61
2022/11/08 06:45:37;;;;;;;34.13;7.15;;;6.00;84.00;;;;;;5008678;28;20565;-59
2022/11/08 06:48:04;;;;;;;36.65;8.40;;;6.10;84.10;;;;;;5008653;28;20464;-60
2022/11/08 06:50:31;;;;;;;34.33;8.15;;;6.10;84.20;;;;;;5007957;28;20049;-61
2022/11/08 06:52:59;;;;;;;35.35;8.05;;;6.10;84.20;;;;;;5008053;28;20034;-61
2022/11/08 06:55:24;;;;;;;20.55;7.70;;;6.10;84.20;;;;;;5008416;28;20121;-61
2022/11/08 06:57:50;;;;;;;20.88;8.57;;;6.10;84.00;;;;;;5008864;28;20130;-62
2022/11/08 07:00:16;;;;;;;21.98;8.85;;;6.00;84.10;;;;;;5008302;28;20521;-60
2022/11/08 07:02:45;;;;;;;22.25;9.50;;;6.00;84.20;;;;;;5007898;28;20134;-61
2022/11/08 07:05:11;;;;;;;25.00;11.15;;;6.10;84.40;;;;;;5006327;28;20463;-60
2022/11/08 07:07:37;;;;;;;32.95;13.07;;;6.10;84.50;;;;;;5007970;28;20065;-61
2022/11/08 07:10:04;;;;;;;35.83;11.20;;;6.10;84.60;;;;;;5008618;28;20057;-60
2022/11/08 07:12:30;;;;;;;30.58;10.82;;;6.10;84.60;;;;;;5002907;28;20397;-60
2022/11/08 07:14:55;;;;;;;21.35;11.48;;;6.10;84.60;;;;;;5008344;28;20026;-60
2022/11/08 07:17:21;;;;;;;68.32;11.30;;;6.10;84.80;;;;;;5008903;28;20026;-62
2022/11/08 07:19:47;;;;;;;58.97;12.00;;;6.20;84.90;;;;;;5008219;28;20490;-59
2022/11/08 07:22:12;;;;;;;44.45;11.18;;;6.20;84.70;;;;;;5007746;28;20030;-62
2022/11/08 07:24:38;;;;;;;90.30;11.45;;;6.10;84.70;;;;;;5005488;28;20121;-59
2022/11/08 07:27:03;;;;;;;44.72;10.07;;;6.10;85.00;;;;;;5006842;28;20037;-61
2022/11/08 07:29:29;;;;;;;56.72;10.35;;;6.20;85.10;;;;;;5005182;28;20117;-60
2022/11/08 07:31:54;;;;;;;94.22;10.10;;;6.20;85.30;;;;;;5006092;28;20037;-62
2022/11/08 07:34:20;;;;;;;64.15;11.07;;;6.20;85.50;;;;;;5005052;28;20049;-61
2022/11/08 07:36:46;;;;;;;58.90;9.40;;;6.20;85.60;;;;;;5001909;28;20504;-61
2022/11/08 07:39:11;;;;;;;62.05;9.93;;;6.20;85.80;;;;;;5006092;28;20564;-62
2022/11/08 07:41:37;;;;;;;57.28;10.63;;;6.30;85.90;;;;;;5004997;28;20062;-63
2022/11/08 07:44:03;;;;;;;49.17;9.57;;;6.30;86.10;;;;;;5004828;28;20461;-61
2022/11/08 07:46:28;;;;;;;89.22;10.63;;;6.30;86.30;;;;;;5004909;28;20030;-61
2022/11/08 07:48:54;;;;;;;96.55;10.18;;;6.40;86.40;;;;;;5005847;28;20073;-59
2022/11/08 07:51:19;;;;;;;56.25;9.30;;;6.40;87.20;;;;;;5003916;28;20065;-61
2022/11/08 07:53:45;;;;;;;127.88;10.88;;;6.40;86.50;;;;;;5005744;28;20046;-60
2022/11/08 07:56:11;;;;;;;73.07;9.45;;;6.40;86.60;;;;;;5004265;28;20038;-62
2022/11/08 07:58:36;;;;;;;57.75;9.73;;;6.40;86.50;;;;;;5004758;28;20049;-61
2022/11/08 08:01:02;;;;;;;59.67;8.95;;;6.40;86.60;;;;;;5005343;28;20045;-63
2022/11/08 08:03:28;;;;;;;36.60;7.30;;;6.40;86.70;;;;;;5005208;28;20129;-62
2022/11/08 08:05:54;;;;;;;51.50;6.63;;;6.40;86.70;;;;;;5003692;28;20137;-60
2022/11/08 08:08:20;;;;;;;8.98;6.28;;;6.30;86.70;;;;;;5002196;28;20049;-62
2022/11/08 08:10:46;;;;;;;22.17;6.10;;;6.40;86.80;;;;;;5002083;28;20555;-63
2022/11/08 08:13:12;;;;;;;22.30;6.40;;;6.40;87.00;;;;;;5001282;28;20038;-61
2022/11/08 08:15:38;;;;;;;11.10;6.60;;;6.40;87.20;;;;;;5004792;28;20041;-61
2022/11/08 08:18:06;;;;;;;26.75;7.90;;;6.40;87.20;;;;;;5004364;28;20040;-63
2022/11/08 08:20:32;;;;;;;34.92;8.25;;;6.50;87.30;;;;;;5003737;28;20034;-61
2022/11/08 08:22:58;;;;;;;25.60;9.55;;;6.50;87.30;;;;;;5005054;28;20114;-63
2022/11/08 08:25:25;;;;;;;23.38;9.45;;;6.60;87.30;;;;;;5005425;28;20469;-63
2022/11/08 08:27:56;;;;;;;16.27;8.90;;;6.60;87.40;;;;;;5003320;28;20034;-62
2022/11/08 08:30:23;;;;;;;41.67;9.63;;;6.70;87.60;;;;;;5005731;28;20034;-62
2022/11/08 08:32:49;;;;;;;23.00;10.63;;;6.70;87.40;;;;;;5003776;28;20048;-63
2022/11/08 08:35:15;;;;;;;23.98;9.82;;;6.70;87.30;;;;;;5003414;28;20048;-63
2022/11/08 08:37:41;;;;;;;14.90;8.75;;;6.70;87.30;;;;;;5003808;28;20117;-62
2022/11/08 08:40:09;;;;;;;17.60;8.90;;;6.80;87.40;;;;;;5004988;28;20034;-59
2022/11/08 08:42:34;;;;;;;25.80;8.57;;;6.80;87.40;;;;;;5004842;28;20033;-63
2022/11/08 08:45:00;;;;;;;27.63;8.45;;;6.90;87.70;;;;;;5006897;28;20030;-63
2022/11/08 08:47:27;;;;;;;14.07;7.72;;;6.90;87.90;;;;;;5006880;28;20161;-62
2022/11/08 08:49:52;;;;;;;14.02;7.88;;;6.90;87.90;;;;;;5007247;28;20026;-61
2022/11/08 08:52:18;;;;;;;19.05;7.97;;;7.00;88.00;;;;;;5004767;28;20037;-60
2022/11/08 08:54:44;;;;;;;37.20;8.55;;;7.00;88.10;;;;;;5004752;28;20037;-62
2022/11/08 08:57:09;;;;;;;21.55;8.50;;;7.10;88.30;;;;;;5003298;28;20116;-62
2022/11/08 08:59:35;;;;;;;19.55;8.07;;;7.20;88.30;;;;;;5003606;28;20240;-63
2022/11/08 09:02:00;;;;;;;13.45;7.97;;;7.20;88.20;;;;;;4999178;28;20044;-63
2022/11/08 09:04:27;;;;;;;13.75;7.90;;;7.30;88.20;;;;;;5007951;28;20073;-61
2022/11/08 09:06:53;;;;;;;10.82;7.85;;;7.30;88.40;;;;;;5005538;28;20347;-61
2022/11/08 09:09:19;;;;;;;12.23;7.60;;;7.40;88.50;;;;;;5008820;28;20037;-62
2022/11/08 09:11:45;;;;;;;12.85;7.60;;;7.40;88.60;;;;;;5005764;28;20038;-63
2022/11/08 09:14:11;;;;;;;10.07;7.32;;;7.50;88.70;;;;;;5009699;28;20041;-61
2022/11/08 09:16:36;;;;;;;12.70;9.02;;;7.60;88.60;;;;;;5009051;28;20041;-63
2022/11/08 09:19:02;;;;;;;15.48;10.75;;;7.60;88.70;;;;;;5008650;28;20038;-61
2022/11/08 09:21:27;;;;;;;15.30;11.63;;;7.70;89.20;;;;;;5006480;28;20254;-62
2022/11/08 09:23:53;;;;;;;11.55;9.25;;;7.70;89.40;;;;;;5009450;28;20038;-60
2022/11/08 09:26:18;;;;;;;10.25;8.38;;;7.80;89.80;;;;;;5008550;28;20128;-61
2022/11/08 09:28:44;;;;;;;11.05;7.80;;;7.80;90.00;;;;;;5006069;28;20774;-62
2022/11/08 09:31:11;;;;;;;11.40;8.50;;;8.00;90.20;;;;;;5009244;28;20045;-60
2022/11/08 09:33:38;;;;;;;9.93;7.53;;;8.00;90.40;;;;;;5009108;28;20413;-62
2022/11/08 09:36:05;;;;;;;10.95;7.53;;;8.10;90.50;;;;;;5007601;28;20137;-62
2022/11/08 09:38:31;;;;;;;12.00;8.02;;;8.30;90.60;;;;;;5006328;28;20191;-60
2022/11/08 09:41:21;;;;;;;10.48;7.95;;;8.40;90.60;;;;;;5008977;28;20040;-62
2022/11/08 09:44:19;;;;;;;10.32;7.93;;;8.50;90.70;;;;;;5006622;28;20445;-60
2022/11/08 09:46:56;;;;;;;10.13;7.07;;;8.60;90.70;;;;;;4978008;28;20070;-62
2022/11/08 09:49:26;;;;;;;9.27;6.88;;;8.80;90.60;;;;;;5008914;28;20041;-61
2022/11/08 09:51:52;;;;;;;8.00;6.40;;;8.90;90.60;;;;;;5006637;28;20041;-60
2022/11/08 09:54:25;;;;;;;8.30;6.50;;;9.00;90.50;;;;;;5008997;28;20034;-60
2022/11/08 09:56:54;;;;;;;7.85;6.20;;;9.20;90.60;;;;;;5005210;28;20042;-62
2022/11/08 09:59:38;;;;;;;7.28;5.50;;;9.40;90.50;;;;;;5005683;28;20030;-61
2022/11/08 10:02:16;;;;;;;7.55;5.55;;;9.50;90.40;;;;;;5007554;28;20042;-62
2022/11/08 10:04:48;;;;;;;9.98;6.60;;;9.70;90.50;;;;;;5007227;28;20045;-60
2022/11/08 10:07:14;;;;;;;9.27;7.10;;;9.80;90.30;;;;;;5005412;28;20036;-61
2022/11/08 10:10:21;;;;;;;13.30;8.25;;;10.00;90.20;;;;;;5006429;28;20125;-62
2022/11/08 10:12:59;;;;;;;9.82;5.80;;;10.10;90.20;;;;;;4991166;28;20045;-61
2022/11/08 10:15:52;;;;;;;10.50;5.82;;;10.30;90.00;;;;;;5008085;28;20049;-62
2022/11/08 10:18:18;;;;;;;9.38;6.15;;;10.40;89.70;;;;;;5007290;28;20041;-62
2022/11/08 10:20:46;;;;;;;9.50;5.57;;;10.50;89.30;;;;;;5006383;28;20044;-63
2022/11/08 10:23:41;;;;;;;9.80;6.13;;;10.60;89.90;;;;;;5007630;28;20041;-62
2022/11/08 10:26:20;;;;;;;9.23;5.87;;;10.70;89.20;;;;;;4998807;28;20030;-62
2022/11/08 10:28:50;;;;;;;9.15;5.70;;;10.80;88.80;;;;;;5006116;28;20553;-62
2022/11/08 10:31:19;;;;;;;7.93;5.05;;;10.90;88.50;;;;;;5006961;28;20069;-61
2022/11/08 10:33:48;;;;;;;5.25;3.67;;;10.90;88.30;;;;;;5007266;28;20056;-62
2022/11/08 10:36:36;;;;;;;3.38;2.85;;;11.00;87.80;;;;;;5007479;28;20034;-62
2022/11/08 10:39:07;;;;;;;5.47;3.10;;;11.10;87.00;;;;;;5007033;28;20041;-60
2022/11/08 10:41:48;;;;;;;10.10;3.78;;;11.10;86.40;;;;;;5006236;28;20417;-60
2022/11/08 10:44:19;;;;;;;3.95;3.28;;;11.20;86.00;;;;;;5007539;28;20034;-61
2022/11/08 10:46:50;;;;;;;6.03;2.60;;;11.30;85.90;;;;;;5006712;28;20045;-62
2022/11/08 10:49:19;;;;;;;4.15;2.92;;;11.40;85.30;;;;;;5008328;28;20060;-61
2022/11/08 10:51:49;;;;;;;4.43;3.15;;;11.40;85.00;;;;;;5005532;28;20069;-62
2022/11/08 10:54:42;;;;;;;6.50;2.80;;;11.50;84.80;;;;;;5006061;28;20049;-59
2022/11/08 10:57:10;;;;;;;4.82;2.40;;;11.60;84.30;;;;;;5007070;28;20038;-62
2022/11/08 10:59:35;;;;;;;3.65;2.33;;;11.60;84.60;;;;;;5007613;28;20033;-61
2022/11/08 11:02:01;;;;;;;2.90;2.45;;;11.70;84.50;;;;;;5007977;28;20045;-62
2022/11/08 11:04:30;;;;;;;5.35;2.40;;;11.80;84.50;;;;;;5006552;28;20042;-61
2022/11/08 11:07:22;;;;;;;2.63;2.20;;;11.80;84.30;;;;;;5004996;28;20038;-62
2022/11/08 11:09:48;;;;;;;3.92;2.42;;;11.90;83.80;;;;;;5006618;28;20034;-62
2022/11/08 11:12:13;;;;;;;3.40;2.40;;;12.00;83.90;;;;;;4999954;28;20041;-63
2022/11/08 11:14:39;;;;;;;6.88;3.75;;;12.10;83.80;;;;;;5005064;28;20046;-62
2022/11/08 11:17:16;;;;;;;4.57;3.33;;;12.10;83.60;;;;;;5006085;28;20033;-60
2022/11/08 11:19:50;;;;;;;3.72;2.90;;;12.20;83.20;;;;;;5005686;28;20034;-62
2022/11/08 11:22:31;;;;;;;2.90;2.70;;;12.30;83.30;;;;;;5007416;28;20075;-63
2022/11/08 11:25:12;;;;;;;3.00;2.63;;;12.30;82.70;;;;;;5007914;28;20046;-62
2022/11/08 11:27:39;;;;;;;3.03;2.83;;;12.40;82.60;;;;;;5009089;28;20409;-63
2022/11/08 11:30:22;;;;;;;2.83;2.58;;;12.40;82.60;;;;;;5007589;28;20503;-60
2022/11/08 11:32:57;;;;;;;3.22;2.92;;;12.50;82.20;;;;;;5008020;28;20497;-62
2022/11/08 11:35:26;;;;;;;2.85;2.65;;;12.50;82.30;;;;;;5007923;28;20042;-62
2022/11/08 11:37:55;;;;;;;3.28;2.92;;;12.50;82.40;;;;;;5006700;28;20030;-62
2022/11/08 11:40:44;;;;;;;3.42;3.13;;;12.60;82.30;;;;;;5005433;28;20034;-62
2022/11/08 11:43:36;;;;;;;3.53;2.97;;;12.60;82.70;;;;;;5005974;28;20030;-60
2022/11/08 11:46:19;;;;;;;3.28;2.97;;;12.60;81.90;;;;;;5006555;28;20556;-63
2022/11/08 11:48:49;;;;;;;4.15;3.20;;;12.60;82.00;;;;;;5005637;28;20057;-63
2022/11/08 11:51:14;;;;;;;4.00;3.22;;;12.60;82.20;;;;;;5003372;28;20123;-62
2022/11/08 11:53:41;;;;;;;4.03;2.97;;;12.60;82.30;;;;;;5005036;28;20046;-63
2022/11/08 11:56:26;;;;;;;7.55;3.03;;;12.60;82.40;;;;;;5004678;28;20512;-59
2022/11/08 11:59:04;;;;;;;6.70;2.78;;;12.70;82.40;;;;;;5006674;28;20051;-62
2022/11/08 12:01:51;;;;;;;3.25;2.45;;;12.80;82.60;;;;;;5005466;28;20072;-63
2022/11/08 12:04:25;;;;;;;9.13;2.17;;;12.80;82.90;;;;;;5006442;28;20038;-61
2022/11/08 12:07:20;;;;;;;5.20;2.10;;;12.80;83.10;;;;;;5005435;28;20326;-62
2022/11/08 12:10:07;;;;;;;7.50;2.25;;;13.00;83.20;;;;;;4983885;28;20034;-62
2022/11/08 12:13:00;;;;;;;4.32;1.60;;;13.10;83.40;;;;;;4999196;28;20123;-62
2022/11/08 12:15:53;;;;;;;3.25;1.80;;;13.40;82.60;;;;;;5005790;28;20457;-63
2022/11/08 12:18:31;;;;;;;6.20;1.88;;;13.60;81.80;;;;;;5006253;28;20062;-59
2022/11/08 12:21:09;;;;;;;6.32;1.70;;;13.80;82.00;;;;;;5005098;28;20025;-61
2022/11/08 12:23:48;;;;;;;1.80;1.70;;;14.00;80.80;;;;;;5004203;28;20117;-63
2022/11/08 12:26:22;;;;;;;3.50;1.70;;;14.30;80.00;;;;;;5005486;28;20376;-63
2022/11/08 12:28:51;;;;;;;2.88;1.80;;;14.40;79.40;;;;;;5005226;28;20033;-63
2022/11/08 12:31:52;;;;;;;2.50;1.67;;;14.60;79.30;;;;;;5004155;28;20048;-63
2022/11/08 12:34:45;;;;;;;4.10;2.05;;;14.70;77.00;;;;;;5005514;28;20038;-62
2022/11/08 12:37:31;;;;;;;3.63;1.70;;;14.80;77.00;;;;;;5005331;28;20037;-63
2022/11/08 12:40:14;;;;;;;2.83;1.55;;;14.90;76.10;;;;;;5003852;28;20526;-63
2022/11/08 12:42:43;;;;;;;2.33;1.80;;;15.00;76.00;;;;;;5005192;28;20096;-63
2022/11/08 12:45:20;;;;;;;6.55;1.90;;;15.00;76.30;;;;;;5003955;28;20528;-62
2022/11/08 12:47:48;;;;;;;5.32;1.77;;;15.10;75.30;;;;;;5005237;28;20044;-61
2022/11/08 12:50:33;;;;;;;3.20;1.90;;;15.10;75.30;;;;;;5005744;28;20524;-62
2022/11/08 12:53:22;;;;;;;2.75;2.00;;;15.10;73.50;;;;;;5004477;28;20100;-63
2022/11/08 12:55:51;;;;;;;4.43;2.00;;;15.10;73.90;;;;;;5006131;28;20030;-61
2022/11/08 12:58:34;;;;;;;2.00;1.80;;;15.20;74.70;;;;;;5005898;28;20612;-62
2022/11/08 13:01:09;;;;;;;2.28;1.80;;;15.10;73.50;;;;;;5004037;28;20033;-62
2022/11/08 13:03:50;;;;;;;2.60;1.70;;;15.10;73.80;;;;;;5005173;28;20046;-62
2022/11/08 13:06:45;;;;;;;2.47;1.95;;;15.20;73.90;;;;;;5003767;28;20030;-63
2022/11/08 13:09:29;;;;;;;3.45;1.90;;;15.20;73.20;;;;;;5004694;28;20046;-62
2022/11/08 13:12:05;;;;;;;2.35;1.50;;;15.20;72.90;;;;;;4996869;28;20038;-60
2022/11/08 13:14:31;;;;;;;2.55;1.65;;;15.20;73.70;;;;;;5004952;28;20042;-60
2022/11/08 13:17:12;;;;;;;3.50;1.80;;;15.20;73.60;;;;;;5004230;28;20045;-63
2022/11/08 13:19:47;;;;;;;2.55;1.70;;;15.20;72.80;;;;;;5004361;28;20441;-63
2022/11/08 13:22:28;;;;;;;2.65;1.67;;;15.20;73.30;;;;;;5001654;28;20529;-61